createdAt,value
2022-10-18T00:01:46.153Z,334.75
2022-10-18T00:04:17.624Z,337.33
2022-10-18T00:06:49.086Z,332.80
2022-10-18T00:09:20.607Z,322.95
2022-10-18T00:11:51.880Z,332.65
2022-10-18T00:14:26.314Z,319.73
2022-10-18T00:16:57.446Z,330.05
2022-10-18T00:19:29.475Z,329.60
2022-10-18T00:22:00.775Z,326.60
2022-10-18T00:24:32.314Z,336.25
2022-10-18T00:27:03.506Z,321.40
2022-10-18T00:29:38.228Z,331.20
2022-10-18T00:32:09.620Z,314.50
2022-10-18T00:34:42.084Z,327.55
2022-10-18T00:37:13.271Z,316.27
2022-10-18T00:39:45.260Z,314.77
2022-10-18T00:42:20.668Z,320.70
2022-10-18T00:45:27.263Z,317.45
2022-10-18T00:48:01.509Z,308.13
2022-10-18T00:50:36.499Z,318.15
2022-10-18T00:53:12.444Z,308.83
2022-10-18T00:55:43.957Z,324.40
2022-10-18T00:58:16.378Z,318.00
2022-10-18T01:00:50.855Z,327.02
2022-10-18T01:03:22.085Z,317.50
2022-10-18T01:05:53.606Z,313.03
2022-10-18T01:08:47.968Z,325.75
2022-10-18T01:11:40.327Z,317.02
2022-10-18T01:14:22.556Z,303.98
2022-10-18T01:17:02.769Z,309.73
2022-10-18T01:20:15.367Z,320.83
2022-10-18T01:22:50.533Z,310.55
2022-10-18T01:25:35.655Z,309.88
2022-10-18T01:28:18.255Z,300.27
2022-10-18T01:31:00.959Z,310.88
2022-10-18T01:33:41.007Z,314.65
2022-10-18T01:36:20.934Z,309.02
2022-10-18T01:38:55.273Z,315.48
2022-10-18T01:41:28.185Z,313.90
2022-10-18T01:44:02.157Z,310.13
2022-10-18T01:46:36.909Z,305.52
2022-10-18T01:49:08.684Z,303.73
2022-10-18T01:51:39.785Z,309.00
2022-10-18T01:54:12.504Z,314.67
2022-10-18T01:59:42.006Z,300.05
2022-10-18T02:02:27.204Z,296.02
2022-10-18T02:05:05.771Z,307.13
2022-10-18T02:07:48.970Z,301.10
2022-10-18T02:10:34.256Z,306.35
2022-10-18T02:13:05.757Z,301.55
2022-10-18T02:15:40.612Z,308.20
2022-10-18T02:18:18.911Z,305.08
2022-10-18T02:20:51.739Z,304.35
2022-10-18T02:23:28.512Z,304.25
2022-10-18T02:26:00.058Z,302.13
2022-10-18T02:28:31.432Z,306.05
2022-10-18T02:31:09.410Z,311.20
2022-10-18T02:33:50.039Z,303.90
2022-10-18T02:36:25.374Z,308.15
2022-10-18T02:39:01.701Z,299.40
2022-10-18T02:41:34.419Z,296.45
2022-10-18T02:44:05.631Z,304.42
2022-10-18T02:46:38.175Z,299.88
2022-10-18T02:49:11.948Z,301.52
2022-10-18T02:51:43.365Z,293.17
2022-10-18T02:54:14.517Z,297.15
2022-10-18T02:56:49.656Z,307.83
2022-10-18T02:59:20.897Z,301.65
2022-10-18T03:02:15.238Z,303.77
2022-10-18T03:04:49.279Z,299.40
2022-10-18T03:07:33.928Z,297.45
2022-10-18T03:10:05.178Z,299.63
2022-10-18T03:12:48.711Z,301.40
2022-10-18T03:15:21.226Z,298.08
2022-10-18T03:17:52.605Z,294.88
2022-10-18T03:20:26.571Z,293.67
2022-10-18T03:22:57.947Z,295.25
2022-10-18T03:25:29.138Z,295.05
2022-10-18T03:28:00.469Z,290.30
2022-10-18T03:30:31.628Z,292.35
2022-10-18T03:33:03.141Z,305.15
2022-10-18T03:35:36.985Z,292.75
2022-10-18T03:38:08.448Z,282.65
2022-10-18T03:40:39.565Z,294.60
2022-10-18T03:43:11.018Z,301.63
2022-10-18T03:45:43.279Z,293.75
2022-10-18T03:48:17.949Z,297.25
2022-10-18T03:50:51.804Z,280.58
2022-10-18T03:53:23.310Z,288.52
2022-10-18T03:55:55.182Z,294.88
2022-10-18T03:58:27.213Z,287.30
2022-10-18T04:00:58.752Z,283.67
2022-10-18T04:03:30.403Z,296.27
2022-10-18T04:06:04.314Z,295.97
2022-10-18T04:08:35.631Z,289.98
2022-10-18T04:11:11.320Z,292.30
2022-10-18T04:13:42.788Z,297.17
2022-10-18T04:16:14.051Z,288.90
2022-10-18T04:18:45.421Z,294.17
2022-10-18T04:21:19.190Z,303.33
2022-10-18T04:23:50.872Z,297.98
2022-10-18T04:26:23.011Z,307.20
2022-10-18T04:31:25.643Z,295.05
2022-10-18T04:33:57.538Z,302.33
2022-10-18T04:36:31.280Z,314.42
2022-10-18T04:39:02.671Z,304.13
2022-10-18T04:41:34.024Z,324.90
2022-10-18T04:44:05.466Z,316.95
2022-10-18T04:46:36.620Z,336.58
2022-10-18T04:49:08.040Z,328.67
2022-10-18T04:51:41.870Z,331.58
2022-10-18T04:54:13.344Z,329.65
2022-10-18T04:56:44.441Z,338.25
2022-10-18T04:59:15.869Z,334.57
2022-10-18T05:01:47.170Z,329.30
2022-10-18T05:04:18.752Z,347.67
2022-10-18T05:06:52.697Z,339.58
2022-10-18T05:09:24.973Z,349.88
2022-10-18T05:11:56.201Z,352.05
2022-10-18T05:14:27.848Z,339.73
2022-10-18T05:17:02.030Z,347.23
2022-10-18T05:19:33.462Z,332.50
2022-10-18T05:22:07.158Z,337.45
2022-10-18T05:24:38.651Z,325.88
2022-10-18T05:27:10.493Z,324.63
2022-10-18T05:29:41.914Z,325.58
2022-10-18T05:32:13.068Z,333.13
2022-10-18T05:34:44.562Z,334.80
2022-10-18T05:37:18.953Z,338.50
2022-10-18T05:39:50.532Z,328.58
2022-10-18T05:42:21.657Z,340.23
2022-10-18T05:44:53.083Z,332.30
2022-10-18T05:47:24.450Z,339.90
2022-10-18T05:49:55.844Z,329.13
2022-10-18T05:52:29.867Z,337.02
2022-10-18T05:55:01.443Z,325.90
2022-10-18T05:57:35.159Z,337.25
2022-10-18T06:00:08.338Z,339.98
2022-10-18T06:02:42.909Z,347.02
2022-10-18T06:05:14.452Z,358.77
2022-10-18T06:07:48.582Z,365.45
2022-10-18T06:10:20.137Z,345.42
2022-10-18T06:12:51.450Z,359.08
2022-10-18T06:15:22.846Z,363.65
2022-10-18T06:46:15.725Z,375.95
2022-10-18T06:49:19.315Z,392.10
2022-10-18T06:51:50.934Z,403.85
2022-10-18T06:54:22.617Z,400.13
2022-10-18T06:56:53.789Z,417.25
2022-10-18T06:59:27.512Z,403.13
2022-10-18T07:02:04.265Z,426.27
2022-10-18T07:04:35.832Z,424.42
2022-10-18T07:07:06.999Z,425.13
2022-10-18T07:09:39.274Z,429.20
2022-10-18T07:12:12.465Z,424.25
2022-10-18T07:14:43.904Z,428.48
2022-10-18T07:17:17.895Z,423.60
2022-10-18T07:19:49.390Z,436.75
2022-10-18T07:22:20.505Z,452.85
2022-10-18T07:24:51.960Z,437.93
2022-10-18T07:27:23.013Z,449.40
2022-10-18T07:29:54.542Z,452.10
2022-10-18T07:32:28.384Z,451.02
2022-10-18T07:34:59.795Z,461.40
2022-10-18T07:37:31.256Z,449.65
2022-10-18T07:40:02.961Z,447.08
2022-10-18T07:42:36.702Z,456.77
2022-10-18T07:45:08.834Z,449.40
2022-10-18T07:47:42.630Z,458.63
2022-10-18T07:50:14.372Z,463.30
2022-10-18T07:52:46.280Z,462.10
2022-10-18T07:57:48.558Z,447.85
2022-10-18T08:00:20.227Z,442.95
2022-10-18T08:02:59.356Z,458.65
2022-10-18T08:08:25.314Z,460.92
2022-10-18T08:10:57.106Z,464.15
2022-10-18T08:13:28.359Z,457.97
2022-10-18T08:16:03.041Z,452.90
2022-10-18T08:18:38.288Z,469.67
2022-10-18T08:21:13.878Z,469.20
2022-10-18T08:23:46.099Z,474.98
2022-10-18T08:26:37.491Z,479.80
2022-10-18T08:29:22.531Z,465.13
2022-10-18T08:31:56.379Z,469.20
2022-10-18T08:34:30.432Z,461.95
2022-10-18T08:37:04.283Z,468.02
2022-10-18T08:39:35.527Z,464.48
2022-10-18T08:42:34.584Z,462.83
2022-10-18T08:45:17.986Z,459.15
2022-10-18T08:48:01.654Z,476.48
2022-10-18T08:50:39.096Z,461.45
2022-10-18T08:53:20.567Z,484.35
2022-10-18T08:55:56.160Z,473.50
2022-10-18T08:58:31.054Z,469.98
2022-10-18T09:01:10.472Z,487.17
2022-10-18T09:04:20.441Z,490.25
2022-10-18T09:07:01.786Z,485.88
2022-10-18T09:09:42.429Z,488.63
2022-10-18T09:12:28.099Z,488.75
2022-10-18T09:15:19.020Z,491.98
2022-10-18T09:18:07.806Z,495.65
2022-10-18T09:20:50.858Z,489.58
2022-10-18T09:23:28.892Z,490.88
2022-10-18T09:26:09.492Z,490.70
2022-10-18T09:28:53.201Z,504.25
2022-10-18T09:31:33.629Z,499.50
2022-10-18T09:34:08.387Z,504.40
2022-10-18T09:36:41.862Z,491.52
2022-10-18T09:39:18.154Z,489.35
2022-10-18T09:41:53.314Z,482.73
2022-10-18T09:44:31.246Z,475.92
2022-10-18T09:47:05.728Z,480.10
2022-10-18T09:49:43.292Z,486.13
2022-10-18T09:52:21.694Z,490.70
2022-10-18T09:55:00.141Z,498.88
2022-10-18T09:57:38.254Z,502.63
2022-10-18T10:00:16.833Z,495.42
2022-10-18T10:02:48.306Z,482.58
2022-10-18T10:05:19.585Z,496.90
2022-10-18T10:07:52.048Z,484.65
2022-10-18T10:13:08.714Z,485.88
2022-10-18T10:15:42.544Z,494.30
2022-10-18T10:18:24.044Z,493.42
2022-10-18T10:20:57.160Z,494.15
2022-10-18T10:23:29.992Z,508.90
2022-10-18T10:26:06.816Z,517.25
2022-10-18T10:28:46.531Z,524.53
2022-10-18T10:31:29.488Z,524.90
2022-10-18T10:34:06.971Z,512.65
2022-10-18T10:36:49.367Z,521.25
2022-10-18T10:39:22.809Z,514.47
2022-10-18T10:41:58.677Z,528.85
2022-10-18T10:44:33.385Z,513.22
2022-10-18T10:47:04.652Z,530.13
2022-10-18T10:49:50.166Z,509.42
2022-10-18T10:52:28.132Z,522.45
2022-10-18T10:55:11.374Z,534.15
2022-10-18T10:57:57.647Z,514.53
2022-10-18T11:00:42.325Z,534.50
2022-10-18T11:03:33.768Z,535.60
2022-10-18T11:06:05.277Z,523.83
2022-10-18T11:08:43.766Z,535.92
2022-10-18T11:11:23.091Z,534.45
2022-10-18T11:17:07.916Z,517.13
2022-10-18T11:19:45.763Z,502.02
2022-10-18T11:22:21.476Z,530.75
2022-10-18T11:24:52.820Z,517.85
2022-10-18T11:27:29.628Z,533.08
2022-10-18T11:30:20.590Z,527.60
2022-10-18T11:33:00.011Z,521.22
2022-10-18T11:35:41.714Z,516.40
2022-10-18T11:38:24.131Z,518.72
2022-10-18T11:41:16.759Z,513.97
2022-10-18T11:44:03.986Z,517.35
2022-10-18T11:46:48.832Z,520.33
2022-10-18T11:49:47.642Z,509.50
2022-10-18T11:52:25.140Z,517.80
2022-10-18T11:55:07.994Z,512.63
2022-10-18T11:57:53.131Z,522.40
2022-10-18T12:00:39.553Z,527.80
2022-10-18T12:03:31.025Z,526.42
2022-10-18T12:06:07.798Z,523.75
2022-10-18T12:08:42.827Z,532.78
2022-10-18T12:11:19.652Z,524.97
2022-10-18T12:13:54.431Z,527.10
2022-10-18T12:16:50.088Z,530.88
2022-10-18T12:19:27.246Z,524.75
2022-10-18T12:22:00.931Z,519.42
2022-10-18T12:24:34.924Z,530.10
2022-10-18T12:27:07.076Z,541.53
2022-10-18T12:30:05.533Z,531.58
2022-10-18T12:32:39.693Z,536.08
2022-10-18T12:35:18.251Z,523.50
2022-10-18T12:38:11.865Z,531.95
2022-10-18T12:40:48.285Z,529.85
2022-10-18T12:43:24.172Z,526.80
2022-10-18T12:45:57.479Z,533.30
2022-10-18T12:48:33.609Z,525.90
2022-10-18T12:51:10.432Z,511.02
2022-10-18T12:53:42.403Z,523.10
2022-10-18T12:56:41.968Z,520.65
2022-10-18T12:59:53.874Z,519.03
2022-10-18T13:02:31.005Z,519.35
2022-10-18T13:05:03.206Z,518.85
2022-10-18T13:07:44.871Z,528.33
2022-10-18T13:10:43.904Z,512.88
2022-10-18T13:13:47.622Z,515.20
2022-10-18T13:16:40.605Z,509.67
2022-10-18T13:19:25.826Z,522.35
2022-10-18T13:22:13.263Z,528.08
2022-10-18T13:25:01.920Z,528.75
2022-10-18T13:27:43.513Z,531.45
2022-10-18T13:30:35.698Z,539.40
2022-10-18T13:33:33.579Z,539.70
2022-10-18T13:36:06.773Z,521.05
2022-10-18T13:38:58.493Z,515.28
2022-10-18T13:41:35.488Z,527.30
2022-10-18T13:44:32.084Z,522.00
2022-10-18T13:47:14.841Z,515.95
2022-10-18T13:50:09.943Z,525.83
2022-10-18T13:53:12.297Z,529.13
2022-10-18T13:56:01.424Z,517.38
2022-10-18T13:58:49.187Z,512.90
2022-10-18T14:01:42.471Z,522.50
2022-10-18T14:04:42.940Z,516.10
2022-10-18T14:07:15.418Z,511.35
2022-10-18T14:12:31.899Z,506.98
2022-10-18T14:15:10.935Z,508.88
2022-10-18T14:17:47.053Z,503.95
2022-10-18T14:20:27.258Z,511.55
2022-10-18T14:23:07.925Z,517.92
2022-10-18T14:25:41.079Z,509.50
2022-10-18T14:28:17.424Z,503.17
2022-10-18T14:31:02.189Z,517.72
2022-10-18T14:33:39.070Z,511.13
2022-10-18T14:36:15.633Z,512.85
2022-10-18T14:38:54.497Z,511.77
2022-10-18T14:41:27.626Z,495.40
2022-10-18T14:44:21.330Z,505.35
2022-10-18T14:47:01.639Z,502.58
2022-10-18T14:49:33.624Z,511.05
2022-10-18T14:52:05.080Z,490.85
2022-10-18T14:54:40.494Z,506.65
2022-10-18T14:57:20.197Z,490.55
2022-10-18T14:59:57.155Z,493.83
2022-10-18T15:02:33.122Z,498.05
2022-10-18T15:05:11.282Z,498.10
2022-10-18T15:07:42.551Z,510.70
2022-10-18T15:10:19.290Z,502.85
2022-10-18T15:13:08.631Z,508.20
2022-10-18T15:15:43.308Z,497.58
2022-10-18T15:18:23.973Z,505.52
2022-10-18T15:21:23.639Z,503.13
2022-10-18T15:23:56.225Z,505.35
2022-10-18T15:26:30.935Z,506.27
2022-10-18T15:29:04.480Z,497.55
2022-10-18T15:31:45.938Z,497.25
2022-10-18T15:34:23.037Z,506.83
2022-10-18T15:36:56.668Z,491.23
2022-10-18T15:39:30.736Z,511.77
2022-10-18T15:42:03.596Z,494.52
2022-10-18T15:44:37.887Z,491.70
2022-10-18T15:47:23.709Z,503.55
2022-10-18T15:49:59.102Z,485.95
2022-10-18T15:52:39.808Z,487.98
2022-10-18T15:55:41.016Z,505.83
2022-10-18T15:58:18.967Z,501.38
2022-10-18T16:00:51.455Z,499.58
2022-10-18T16:03:25.090Z,495.77
2022-10-18T16:06:03.289Z,503.20
2022-10-18T16:08:37.611Z,500.13
2022-10-18T16:11:09.585Z,504.95
2022-10-18T16:16:16.714Z,471.83
2022-10-18T16:18:48.406Z,486.65
2022-10-18T16:21:26.448Z,488.67
2022-10-18T16:23:58.264Z,485.70
2022-10-18T16:26:30.812Z,491.00
2022-10-18T16:29:03.132Z,482.77
2022-10-18T16:31:37.498Z,492.00
2022-10-18T16:34:11.240Z,501.98
2022-10-18T16:36:45.497Z,493.15
2022-10-18T16:39:19.669Z,483.83
2022-10-18T16:41:51.928Z,482.40
2022-10-18T16:44:23.848Z,490.10
2022-10-18T16:46:56.941Z,491.17
2022-10-18T16:49:29.737Z,481.60
2022-10-18T16:52:03.877Z,488.27
2022-10-18T16:54:36.006Z,481.95
2022-10-18T16:57:07.902Z,486.23
2022-10-18T17:02:12.803Z,459.33
2022-10-18T17:04:44.675Z,469.40
2022-10-18T17:07:26.288Z,478.48
2022-10-18T17:09:58.257Z,474.67
2022-10-18T17:12:29.831Z,487.27
2022-10-18T17:15:01.820Z,475.90
2022-10-18T17:17:33.792Z,479.17
2022-10-18T17:20:08.182Z,476.35
2022-10-18T17:22:42.162Z,471.45
2022-10-18T17:25:13.703Z,483.15
2022-10-18T17:27:45.047Z,481.02
2022-10-18T17:30:18.162Z,479.10
2022-10-18T17:32:49.650Z,479.08
2022-10-18T17:35:21.447Z,487.73
2022-10-18T17:37:56.536Z,467.35
2022-10-18T17:40:28.524Z,478.70
2022-10-18T17:43:00.229Z,479.52
2022-10-18T17:45:32.441Z,474.20
2022-10-18T17:48:07.012Z,470.27
2022-10-18T17:50:42.931Z,474.20
2022-10-18T17:53:22.704Z,478.20
2022-10-18T17:56:02.775Z,471.08
2022-10-18T17:58:34.996Z,484.45
2022-10-18T18:01:14.751Z,463.50
2022-10-18T18:03:47.910Z,476.83
2022-10-18T18:06:21.623Z,476.27
2022-10-18T18:08:55.746Z,482.63
2022-10-18T18:11:28.458Z,477.33
2022-10-18T18:13:59.932Z,480.17
2022-10-18T18:16:33.011Z,488.25
2022-10-18T18:19:09.416Z,476.80
2022-10-18T18:21:43.344Z,483.13
2022-10-18T18:24:20.385Z,464.00
2022-10-18T18:26:52.346Z,462.95
2022-10-18T18:29:24.346Z,477.35
2022-10-18T18:34:27.927Z,461.48
2022-10-18T18:39:35.984Z,461.58
2022-10-18T18:42:09.027Z,470.17
2022-10-18T18:44:40.958Z,470.98
2022-10-18T18:49:45.205Z,456.40
2022-10-18T18:52:17.175Z,463.08
2022-10-18T18:54:51.275Z,475.25
2022-10-18T18:57:23.560Z,478.25
2022-10-18T18:59:55.285Z,474.67
2022-10-18T19:02:27.683Z,471.63
2022-10-18T19:05:01.368Z,472.88
2022-10-18T19:07:35.636Z,469.85
2022-10-18T19:10:11.160Z,484.10
2022-10-18T19:12:43.217Z,469.17
2022-10-18T19:15:15.130Z,465.98
2022-10-18T19:20:18.831Z,450.27
2022-10-18T19:22:50.477Z,449.73
2022-10-18T19:25:26.951Z,461.70
2022-10-18T19:27:58.903Z,474.77
2022-10-18T19:30:30.635Z,466.63
2022-10-18T19:35:36.679Z,435.50
2022-10-18T19:38:08.668Z,454.48
2022-10-18T19:40:42.877Z,458.13
2022-10-18T19:43:15.016Z,450.13
2022-10-18T19:45:46.321Z,451.87
2022-10-18T19:48:18.240Z,448.02
2022-10-18T19:50:50.994Z,441.83
2022-10-18T19:53:22.682Z,444.98
2022-10-18T19:56:01.480Z,456.75
2022-10-18T19:58:33.298Z,444.88
2022-10-18T20:01:04.985Z,440.17
2022-10-18T20:03:36.581Z,434.95
2022-10-18T20:06:08.324Z,430.15
2022-10-18T20:11:35.717Z,427.02
2022-10-18T20:14:09.726Z,422.10
2022-10-18T20:16:41.222Z,444.27
2022-10-18T20:19:13.919Z,441.83
2022-10-18T20:21:45.280Z,433.48
2022-10-18T20:24:16.713Z,439.95
2022-10-18T20:26:50.491Z,438.35
2022-10-18T20:29:25.293Z,435.92
2022-10-18T20:31:57.431Z,435.45
2022-10-18T20:34:29.331Z,427.20
2022-10-18T20:37:00.575Z,429.23
2022-10-18T20:39:33.661Z,421.45
2022-10-18T20:42:07.410Z,424.27
2022-10-18T20:44:43.502Z,430.58
2022-10-18T20:47:14.710Z,425.38
2022-10-18T20:49:46.303Z,435.80
2022-10-18T20:52:17.474Z,426.27
2022-10-18T20:54:49.014Z,425.85
2022-10-18T20:57:22.880Z,430.70
2022-10-18T20:59:54.383Z,419.90
2022-10-18T21:02:25.699Z,440.65
2022-10-18T21:04:57.290Z,436.98
2022-10-18T21:07:28.655Z,432.25
2022-10-18T21:10:00.311Z,437.83
2022-10-18T21:12:35.156Z,434.17
2022-10-18T21:15:07.695Z,435.00
2022-10-18T21:17:38.790Z,441.40
2022-10-18T21:20:12.466Z,440.02
2022-10-18T21:22:43.899Z,444.17
2022-10-18T21:25:15.453Z,439.27
2022-10-18T21:27:49.283Z,438.15
2022-10-18T21:30:20.865Z,449.40
2022-10-18T21:32:52.742Z,443.80
2022-10-18T21:37:54.960Z,416.88
2022-10-18T21:40:26.452Z,439.40
2022-10-18T21:43:00.679Z,430.17
2022-10-18T21:45:32.123Z,430.70
2022-10-18T21:48:03.396Z,429.13
2022-10-18T21:50:37.268Z,421.25
2022-10-18T21:53:08.439Z,432.38
2022-10-18T21:55:39.777Z,426.67
2022-10-18T21:58:14.025Z,427.17
2022-10-18T22:00:45.552Z,435.40
2022-10-18T22:03:17.212Z,418.50
2022-10-18T22:05:48.584Z,409.40
2022-10-18T22:08:20.040Z,423.13
2022-10-18T22:10:51.528Z,414.13
2022-10-18T22:13:25.437Z,428.20
2022-10-18T22:15:56.927Z,421.15
2022-10-18T22:18:28.184Z,426.30
2022-10-18T22:21:00.927Z,417.98
2022-10-18T22:23:35.071Z,434.30
2022-10-18T22:26:08.109Z,427.70
2022-10-18T22:28:42.774Z,424.88
2022-10-18T22:31:19.504Z,427.42
2022-10-18T22:33:55.049Z,414.92
2022-10-18T22:36:27.000Z,417.17
2022-10-18T22:38:58.365Z,427.25
2022-10-18T22:41:29.988Z,434.73
2022-10-18T22:44:04.150Z,404.60
2022-10-18T22:46:35.811Z,415.75
2022-10-18T22:49:07.086Z,426.02
2022-10-18T22:51:38.500Z,422.20
2022-10-18T22:54:10.129Z,424.17
2022-10-18T22:56:41.736Z,424.17
2022-10-18T22:59:15.480Z,416.50
2022-10-18T23:01:46.877Z,401.55
2022-10-18T23:04:17.999Z,427.85
2022-10-18T23:06:49.421Z,397.97
2022-10-18T23:09:20.611Z,419.65
2022-10-18T23:11:53.105Z,409.70
2022-10-18T23:16:57.997Z,402.35
2022-10-18T23:19:29.152Z,416.20
2022-10-18T23:22:00.499Z,420.37
2022-10-18T23:24:32.184Z,408.37
2022-10-18T23:27:03.681Z,408.00
2022-10-18T23:29:37.471Z,415.80
2022-10-18T23:32:09.272Z,404.58
2022-10-18T23:34:40.473Z,414.73
2022-10-18T23:37:11.967Z,409.52
2022-10-18T23:39:43.128Z,414.70
2022-10-18T23:42:14.545Z,407.95
2022-10-18T23:44:48.416Z,402.30
2022-10-18T23:47:19.951Z,403.30
2022-10-18T23:49:51.065Z,416.27
2022-10-18T23:52:22.349Z,425.60
2022-10-18T23:54:53.648Z,423.48
2022-10-18T23:57:24.980Z,412.23
2022-10-18T23:59:58.836Z,413.15
